Time;durP1;ratioP1;P1;durP2;ratioP2;P2;SDS_P1;SDS_P2;PMS_P1;PMS_P2;Temp;Humidity;BMP_temperature;BMP_pressure;BME280_temperature;BME280_humidity;BME280_pressure;Samples;Min_cycle;Max_cycle;Signal;HPM_P1;HPM_P2
2022/09/08 00:00:51;;;;;;;7.15;3.95;;;;;;;18.34;73.80;92474.75;2053666;69;20704;-74
2022/09/08 00:03:23;;;;;;;8.85;3.67;;;;;;;18.36;73.55;92471.94;2056668;69;20268;-73
2022/09/08 00:06:01;;;;;;;7.18;3.67;;;;;;;18.39;72.86;92479.16;2052355;69;20154;-74
2022/09/08 00:08:28;;;;;;;8.77;3.83;;;;;;;18.46;71.61;92474.34;2053684;69;20257;-75
2022/09/08 00:10:57;;;;;;;9.50;3.75;;;;;;;18.24;73.43;92466.63;2051882;69;20144;-75
2022/09/08 00:13:25;;;;;;;7.55;3.50;;;;;;;18.37;72.54;92456.31;2056133;69;20204;-74
2022/09/08 00:15:52;;;;;;;8.68;3.63;;;;;;;18.29;74.51;92453.22;2056754;69;20133;-75
2022/09/08 00:18:18;;;;;;;7.55;3.60;;;;;;;18.43;73.76;92465.03;2056655;69;20137;-75
2022/09/08 00:20:44;;;;;;;10.00;3.40;;;;;;;18.48;72.94;92457.31;2055655;69;20182;-75
2022/09/08 00:23:09;;;;;;;7.05;3.47;;;;;;;18.49;73.96;92459.50;2054982;69;20154;-75
2022/09/08 00:25:35;;;;;;;7.85;3.78;;;;;;;18.25;74.79;92456.69;2052982;70;20150;-76
2022/09/08 00:28:01;;;;;;;6.05;3.72;;;;;;;17.56;78.13;92473.81;2055902;69;20236;-75
2022/09/08 00:30:26;;;;;;;5.53;3.67;;;;;;;17.90;75.42;92460.66;2056610;69;20204;-74
2022/09/08 00:32:52;;;;;;;7.43;3.50;;;;;;;18.16;74.01;92463.56;2054662;69;20141;-75
2022/09/08 00:35:18;;;;;;;9.35;4.00;;;;;;;18.22;74.89;92457.28;2053832;70;20688;-75
2022/09/08 00:37:52;;;;;;;5.82;3.72;;;;;;;18.20;74.07;92457.97;2053607;69;20246;-74
2022/09/08 00:40:18;;;;;;;5.18;3.55;;;;;;;18.24;73.64;92469.50;2054038;69;20209;-75
2022/09/08 00:42:43;;;;;;;5.78;3.05;;;;;;;18.28;73.02;92468.88;2055601;69;20145;-73
2022/09/08 00:45:17;;;;;;;5.18;3.45;;;;;;;18.26;73.90;92477.34;2049561;69;20149;-74
2022/09/08 00:48:00;;;;;;;6.07;3.50;;;;;;;18.10;75.21;92493.97;2053457;70;20150;-74
2022/09/08 00:50:27;;;;;;;6.07;3.53;;;;;;;18.15;74.63;92495.56;2054797;69;20245;-74
2022/09/08 00:53:03;;;;;;;5.75;3.55;;;;;;;18.07;74.84;92483.94;2054423;69;20721;-74
2022/09/08 00:55:36;;;;;;;4.80;3.72;;;;;;;18.10;74.99;92443.44;2055241;69;20150;-74
2022/09/08 00:58:02;;;;;;;6.95;3.80;;;;;;;18.24;74.56;92406.09;2053621;70;20146;-74
2022/09/08 01:00:28;;;;;;;6.90;3.60;;;;;;;18.24;73.44;92406.09;2055026;69;20160;-74
2022/09/08 01:02:54;;;;;;;5.32;3.50;;;;;;;17.98;74.88;92428.84;2053988;69;20182;-75
2022/09/08 01:05:30;;;;;;;5.72;3.65;;;;;;;17.96;77.53;92438.06;2054018;69;20130;-75
2022/09/08 01:18:12;;;;;;;9.15;3.50;;;;;;;18.16;75.08;92465.69;2044906;70;20185;-75
2022/09/08 01:21:02;;;;;;;5.30;3.45;;;;;;;18.17;75.12;92467.84;2044312;70;20143;-75
2022/09/08 01:23:58;;;;;;;4.85;3.67;;;;;;;18.22;75.66;92466.56;2046149;70;20198;-75
2022/09/08 01:26:36;;;;;;;8.23;4.15;;;;;;;18.12;76.15;92463.44;2046615;70;20143;-76
2022/09/08 01:29:06;;;;;;;6.32;3.70;;;;;;;18.32;72.55;92463.28;2045368;70;20154;-76
2022/09/08 01:31:41;;;;;;;4.45;3.33;;;;;;;18.39;72.37;92453.50;2044418;70;20171;-75
2022/09/08 01:34:07;;;;;;;5.15;3.75;;;;;;;18.25;74.18;92453.13;2046286;70;20217;-75
2022/09/08 01:36:33;;;;;;;8.55;4.22;;;;;;;18.22;75.17;92454.44;2044599;70;20159;-75
2022/09/08 01:39:03;;;;;;;7.07;4.32;;;;;;;17.91;79.10;92447.84;2041143;70;20200;-75
2022/09/08 01:41:31;;;;;;;9.32;3.55;;;;;;;18.15;75.33;92444.28;2045304;70;20736;-75
2022/09/08 01:43:57;;;;;;;7.03;3.88;;;;;;;18.24;75.63;92445.97;2043448;70;20738;-75
2022/09/08 01:46:23;;;;;;;6.38;3.50;;;;;;;18.32;72.97;92454.72;2047926;69;20169;-76
2022/09/08 01:48:49;;;;;;;6.28;4.57;;;;;;;18.27;75.34;92447.47;2054464;70;20584;-75
2022/09/08 01:51:15;;;;;;;7.15;3.70;;;;;;;18.29;75.95;92441.84;2054874;69;20142;-75
2022/09/08 01:53:41;;;;;;;6.32;4.15;;;;;;;18.34;76.32;92434.13;2054598;69;20149;-74
2022/09/08 01:56:07;;;;;;;7.45;4.10;;;;;;;18.25;76.33;92424.63;2054703;69;20170;-75
2022/09/08 01:58:34;;;;;;;10.20;3.92;;;;;;;18.32;74.73;92414.13;2053771;69;20178;-75
2022/09/08 02:01:00;;;;;;;6.53;3.70;;;;;;;18.29;74.94;92422.63;2054044;69;20160;-75
2022/09/08 02:03:26;;;;;;;5.55;3.85;;;;;;;18.28;76.22;92441.13;2055875;69;20509;-76
2022/09/08 02:05:52;;;;;;;7.00;4.07;;;;;;;18.21;75.38;92433.06;2055675;69;20177;-75
2022/09/08 02:08:17;;;;;;;7.88;3.70;;;;;;;18.29;74.07;92422.63;2056308;69;20208;-75
2022/09/08 02:10:53;;;;;;;3.55;3.22;;;;;;;18.17;75.50;92413.72;2055858;69;20201;-75
2022/09/08 02:13:18;;;;;;;8.57;3.45;;;;;;;18.26;73.83;92423.94;2051170;69;20172;-75
2022/09/08 02:15:44;;;;;;;14.13;4.40;;;;;;;18.33;74.22;92424.13;2056393;69;20149;-75
2022/09/08 02:18:09;;;;;;;7.30;3.88;;;;;;;18.27;74.67;92408.31;2054853;69;20167;-75
2022/09/08 02:20:35;;;;;;;5.47;3.42;;;;;;;18.30;73.44;92409.09;2055637;69;20173;-75
2022/09/08 02:23:01;;;;;;;6.30;3.60;;;;;;;18.35;73.36;92398.53;2053169;69;20153;-75
2022/09/08 02:25:28;;;;;;;6.10;3.88;;;;;;;18.28;75.27;92401.22;2056449;69;20840;-75
2022/09/08 02:27:53;;;;;;;6.15;3.95;;;;;;;18.24;75.28;92398.25;2053852;69;20150;-76
2022/09/08 02:30:20;;;;;;;4.18;3.50;;;;;;;18.25;74.32;92379.75;2054490;69;20299;-76
2022/09/08 02:32:46;;;;;;;10.70;3.63;;;;;;;18.37;73.49;92364.38;2055156;69;20475;-76
2022/09/08 02:35:12;;;;;;;5.40;3.53;;;;;;;18.22;75.62;92354.72;2050865;70;20141;-75
2022/09/08 02:37:37;;;;;;;6.22;3.95;;;;;;;18.15;76.37;92351.00;2052995;69;20185;-75
2022/09/08 02:40:03;;;;;;;4.65;3.60;;;;;;;18.25;73.58;92353.41;2053674;69;20443;-76
2022/09/08 02:42:29;;;;;;;7.40;3.83;;;;;;;18.09;76.60;92361.50;2056763;69;20607;-75
2022/09/08 02:44:55;;;;;;;8.10;3.88;;;;;;;18.22;72.92;92363.28;2053792;69;20245;-76
2022/09/08 02:47:21;;;;;;;9.88;3.95;;;;;;;18.18;73.82;92358.19;2054948;69;20165;-75
2022/09/08 02:49:46;;;;;;;5.75;3.80;;;;;;;18.14;75.20;92357.34;2054459;69;20225;-76
2022/09/08 02:52:12;;;;;;;9.25;3.92;;;;;;;18.08;75.24;92360.78;2053452;69;20229;-76
2022/09/08 02:54:38;;;;;;;8.02;3.70;;;;;;;18.00;75.54;92355.56;2052900;69;20240;-76
2022/09/08 02:57:04;;;;;;;8.95;4.10;;;;;;;17.90;77.05;92352.44;2054501;69;20149;-75
2022/09/08 02:59:30;;;;;;;7.07;3.90;;;;;;;17.90;77.36;92349.59;2055830;69;20486;-75
2022/09/08 03:01:58;;;;;;;7.32;3.90;;;;;;;17.91;76.74;92350.31;2056258;69;20552;-76
2022/09/08 03:04:23;;;;;;;6.90;3.90;;;;;;;17.87;77.06;92341.66;2056689;69;20225;-75
2022/09/08 03:06:49;;;;;;;6.35;4.00;;;;;;;17.85;76.83;92328.09;2053750;69;20527;-75
2022/09/08 03:09:16;;;;;;;5.97;3.80;;;;;;;17.90;75.47;92335.34;2054217;69;20150;-76
2022/09/08 03:11:41;;;;;;;6.28;3.20;;;;;;;17.84;75.58;92337.31;2051436;69;20524;-76
2022/09/08 03:14:07;;;;;;;4.40;3.08;;;;;;;17.84;75.91;92334.47;2052446;70;20173;-76
2022/09/08 03:16:32;;;;;;;5.57;2.97;;;;;;;17.76;76.59;92332.84;2053498;69;20150;-75
2022/09/08 03:18:58;;;;;;;9.68;3.47;;;;;;;17.64;76.92;92326.78;2055471;69;20574;-75
2022/09/08 03:21:24;;;;;;;6.70;2.88;;;;;;;17.77;76.04;92328.59;2053669;69;20192;-75
2022/09/08 03:23:50;;;;;;;6.03;2.83;;;;;;;17.82;75.46;92331.56;2057312;69;20146;-75
2022/09/08 03:26:20;;;;;;;5.78;2.75;;;;;;;17.70;76.40;92326.94;2055305;69;20166;-76
2022/09/08 03:28:46;;;;;;;6.85;2.88;;;;;;;17.67;76.83;92327.56;2056144;69;20621;-76
2022/09/08 03:31:15;;;;;;;5.07;2.78;;;;;;;17.69;75.34;92325.50;2051622;70;20166;-75
2022/09/08 03:33:42;;;;;;;8.32;3.58;;;;;;;17.75;75.27;92327.81;2054006;70;20190;-76
2022/09/08 03:36:10;;;;;;;6.57;3.00;;;;;;;17.57;76.84;92310.91;2055378;69;20238;-75
2022/09/08 03:38:36;;;;;;;6.13;3.00;;;;;;;17.73;74.86;92316.34;2054254;69;20145;-76
2022/09/08 03:41:11;;;;;;;5.53;3.17;;;;;;;17.80;74.73;92318.00;2056973;69;20212;-76
2022/09/08 03:43:37;;;;;;;4.32;3.15;;;;;;;17.59;77.26;92310.97;2052859;69;20581;-75
2022/09/08 03:46:09;;;;;;;5.45;3.20;;;;;;;17.64;76.46;92306.13;2053383;69;20240;-76
2022/09/08 03:48:35;;;;;;;5.43;3.30;;;;;;;17.66;76.16;92311.88;2053961;69;20602;-76
2022/09/08 03:51:22;;;;;;;6.07;2.95;;;;;;;17.63;76.59;92305.38;2054880;69;20271;-75
2022/09/08 03:53:47;;;;;;;6.53;3.10;;;;;;;17.57;76.54;92313.03;2056736;69;20181;-75
2022/09/08 03:56:13;;;;;;;5.35;3.22;;;;;;;17.61;77.05;92316.00;2053195;69;20167;-74
2022/09/08 03:58:39;;;;;;;4.28;2.78;;;;;;;17.52;77.30;92312.91;2060291;69;20213;-74
2022/09/08 04:01:09;;;;;;;5.80;3.05;;;;;;;17.64;76.35;92314.66;2057119;69;20606;-74
2022/09/08 04:03:35;;;;;;;7.20;2.90;;;;;;;17.68;75.77;92312.66;2059302;69;20157;-75
2022/09/08 04:06:00;;;;;;;4.05;2.58;;;;;;;17.65;74.81;92314.00;2057350;69;20155;-74
2022/09/08 04:08:27;;;;;;;4.78;3.33;;;;;;;17.59;76.29;92319.50;2059773;69;20565;-74
2022/09/08 04:10:56;;;;;;;7.28;3.80;;;;;;;17.62;76.94;92323.16;2059534;69;20584;-75
2022/09/08 04:13:21;;;;;;;5.47;3.25;;;;;;;17.60;77.09;92332.34;2058076;69;20149;-75
2022/09/08 04:15:47;;;;;;;5.18;2.80;;;;;;;17.62;76.52;92323.88;2056222;69;20230;-75
2022/09/08 04:18:12;;;;;;;6.30;2.50;;;;;;;17.59;76.83;92310.97;2060092;69;20160;-75
2022/09/08 04:20:39;;;;;;;7.30;2.80;;;;;;;17.61;75.71;92299.66;2057330;69;20264;-75
2022/09/08 04:23:05;;;;;;;4.50;2.50;;;;;;;17.39;77.42;92302.56;2057381;69;20161;-75
2022/09/08 04:25:31;;;;;;;6.53;3.33;;;;;;;17.41;77.84;92318.97;2058339;69;20597;-76
2022/09/08 04:27:58;;;;;;;5.20;3.03;;;;;;;17.53;76.44;92330.72;2057253;69;20190;-75
2022/09/08 04:30:24;;;;;;;5.57;2.80;;;;;;;17.51;76.50;92327.81;2060886;69;20141;-75
2022/09/08 04:32:49;;;;;;;5.05;2.60;;;;;;;17.54;75.04;92306.56;2061358;69;20168;-75
2022/09/08 04:35:15;;;;;;;4.18;2.63;;;;;;;17.19;78.25;92314.09;2057489;69;20554;-75
2022/09/08 04:37:41;;;;;;;3.70;2.92;;;;;;;17.40;76.32;92329.63;2058600;69;20148;-75
2022/09/08 04:40:07;;;;;;;8.70;3.05;;;;;;;17.53;74.49;92339.25;2055460;69;20149;-75
2022/09/08 04:42:33;;;;;;;5.97;2.83;;;;;;;17.41;77.31;92338.88;2057434;69;20233;-75
2022/09/08 04:44:59;;;;;;;3.83;2.50;;;;;;;17.49;76.43;92327.75;2057040;69;20174;-75
2022/09/08 04:47:25;;;;;;;6.65;2.95;;;;;;;17.46;76.89;92326.97;2057177;69;20179;-74
2022/09/08 04:49:52;;;;;;;6.38;2.78;;;;;;;17.39;76.11;92336.00;2057380;69;20141;-75
2022/09/08 04:52:20;;;;;;;6.10;2.55;;;;;;;17.43;77.79;92345.38;2057459;69;20138;-75
2022/09/08 04:54:46;;;;;;;3.70;2.90;;;;;;;17.37;78.62;92341.63;2057463;69;20153;-75
2022/09/08 04:57:13;;;;;;;4.80;2.45;;;;;;;17.56;75.31;92337.22;2058019;69;20153;-74
2022/09/08 04:59:39;;;;;;;5.13;2.67;;;;;;;17.48;77.14;92326.31;2058662;69;20148;-75
2022/09/08 05:02:05;;;;;;;5.15;2.38;;;;;;;17.56;76.01;92331.50;2057404;69;20630;-75
2022/09/08 05:04:30;;;;;;;4.40;2.10;;;;;;;17.51;75.77;92331.41;2056542;69;20605;-75
2022/09/08 05:06:56;;;;;;;6.53;2.25;;;;;;;17.54;76.25;92343.53;2057349;69;20150;-75
2022/09/08 05:09:21;;;;;;;5.00;2.53;;;;;;;17.55;76.97;92342.19;2058834;69;20229;-75
2022/09/08 05:11:47;;;;;;;4.75;2.50;;;;;;;17.52;77.20;92347.06;2056754;69;20248;-76
2022/09/08 05:14:13;;;;;;;4.72;2.33;;;;;;;17.56;77.00;92345.75;2057929;69;20237;-74
2022/09/08 05:16:38;;;;;;;4.13;2.40;;;;;;;17.51;77.06;92356.28;2057405;69;20169;-76
2022/09/08 05:19:06;;;;;;;4.28;2.20;;;;;;;17.50;77.13;92358.41;2058465;69;20243;-75
2022/09/08 05:21:34;;;;;;;3.08;2.20;;;;;;;17.49;77.32;92351.25;2053056;69;20169;-75
2022/09/08 05:24:00;;;;;;;4.15;2.50;;;;;;;17.47;77.51;92341.94;2057263;69;20218;-75
2022/09/08 05:26:28;;;;;;;4.20;2.22;;;;;;;17.50;76.91;92347.03;2056962;69;20597;-75
2022/09/08 05:28:53;;;;;;;10.25;2.10;;;;;;;17.49;77.05;92356.22;2057520;69;20253;-75
2022/09/08 05:31:23;;;;;;;6.05;2.40;;;;;;;17.41;76.74;92367.34;2053795;69;20285;-74
2022/09/08 05:33:51;;;;;;;5.13;2.50;;;;;;;17.48;77.55;92374.69;2055935;69;20254;-74
2022/09/08 05:36:19;;;;;;;4.47;2.83;;;;;;;17.42;77.70;92383.75;2057133;69;20217;-75
2022/09/08 05:38:45;;;;;;;6.88;2.90;;;;;;;17.43;76.94;92393.03;2057025;69;20153;-74
2022/09/08 05:41:11;;;;;;;5.15;2.80;;;;;;;17.45;77.25;92407.31;2058310;69;20152;-75
2022/09/08 05:43:37;;;;;;;6.50;2.40;;;;;;;17.52;75.89;92414.66;2058572;69;20144;-75
2022/09/08 05:46:04;;;;;;;6.07;2.50;;;;;;;17.53;75.77;92421.78;2056492;69;20184;-74
2022/09/08 05:48:30;;;;;;;9.50;2.30;;;;;;;17.44;77.30;92426.50;2056416;69;20157;-75
2022/09/08 05:50:56;;;;;;;4.85;2.35;;;;;;;17.43;76.25;92427.16;2055109;69;20187;-75
2022/09/08 05:53:22;;;;;;;6.47;2.50;;;;;;;17.46;76.27;92426.56;2057937;69;20165;-75
2022/09/08 05:56:02;;;;;;;4.03;2.25;;;;;;;17.25;77.08;92436.56;2054544;69;20203;-75
2022/09/08 05:58:29;;;;;;;4.07;2.40;;;;;;;17.40;75.16;92437.75;2054795;69;20238;-75
2022/09/08 06:01:07;;;;;;;6.45;2.30;;;;;;;17.42;77.18;92432.13;2057686;69;20184;-75
2022/09/08 06:03:33;;;;;;;10.05;2.20;;;;;;;17.36;77.76;92443.31;2056958;69;20232;-75
2022/09/08 06:06:04;;;;;;;3.13;1.73;;;;;;;17.38;75.35;92446.22;2057896;69;20474;-75
2022/09/08 06:08:31;;;;;;;3.95;1.77;;;;;;;17.22;75.83;92448.53;2057453;69;20597;-75
2022/09/08 06:10:56;;;;;;;3.78;1.95;;;;;;;17.03;77.79;92450.06;2058438;69;20795;-75
2022/09/08 06:13:24;;;;;;;3.45;2.22;;;;;;;17.23;77.22;92453.59;2056634;69;20616;-75
2022/09/08 06:15:50;;;;;;;4.28;1.77;;;;;;;17.21;75.45;92452.78;2057391;69;20145;-75
2022/09/08 06:18:19;;;;;;;4.57;1.70;;;;;;;17.20;77.00;92459.88;2057023;69;20272;-75
2022/09/08 06:20:45;;;;;;;1.85;1.70;;;;;;;17.27;77.21;92464.34;2058166;69;20311;-75
2022/09/08 06:23:12;;;;;;;4.40;1.60;;;;;;;17.37;76.86;92466.81;2059262;69;20160;-75
2022/09/08 06:25:45;;;;;;;3.22;1.67;;;;;;;17.39;77.06;92470.44;2058082;69;20186;-75
2022/09/08 06:28:19;;;;;;;;;;;;;;;17.46;76.19;92471.38;2058215;69;20170;-74
2022/09/08 06:30:50;;;;;;;6.47;1.88;;;;;;;17.44;76.95;92469.19;2058138;69;20112;-75
2022/09/08 06:33:27;;;;;;;3.45;1.90;;;;;;;17.56;75.30;92473.81;2058737;69;20176;-76
2022/09/08 06:36:09;;;;;;;3.35;1.77;;;;;;;17.55;76.80;92475.94;2060225;69;20146;-75
2022/09/08 06:39:00;;;;;;;4.40;1.80;;;;;;;17.63;76.71;92469.75;2058324;69;20169;-76
2022/09/08 06:41:44;;;;;;;5.18;1.90;;;;;;;17.67;76.16;92469.88;2055899;69;20248;-77
2022/09/08 06:44:16;;;;;;;2.65;1.90;;;;;;;17.76;76.03;92458.09;2058638;69;20241;-77
2022/09/08 06:46:44;;;;;;;5.80;2.20;;;;;;;17.73;76.60;92448.06;2057270;69;20149;-76
2022/09/08 06:49:11;;;;;;;5.32;2.40;;;;;;;17.72;76.43;92454.38;2057333;69;20161;-76
2022/09/08 06:51:58;;;;;;;4.05;2.10;;;;;;;17.87;74.56;92458.41;2057721;69;20182;-75
2022/09/08 06:54:32;;;;;;;4.43;2.28;;;;;;;17.74;76.14;92451.63;2055873;69;20513;-75
2022/09/08 06:57:13;;;;;;;3.20;2.30;;;;;;;17.91;75.24;92447.84;2057206;69;20627;-76
2022/09/08 07:00:18;;;;;;;4.10;2.47;;;;;;;17.92;76.15;92452.19;2056117;69;20215;-74
2022/09/08 07:02:58;;;;;;;6.63;2.60;;;;;;;17.93;76.39;92453.63;2054319;69;20220;-75
2022/09/08 07:05:53;;;;;;;7.07;3.10;;;;;;;17.94;77.04;92460.78;2057472;69;20259;-75
2022/09/08 07:09:01;;;;;;;4.50;2.38;;;;;;;17.93;76.94;92467.88;2057027;69;20149;-76
2022/09/08 07:11:47;;;;;;;4.13;2.22;;;;;;;17.94;77.31;92460.78;2059222;69;20181;-76
2022/09/08 07:14:27;;;;;;;7.25;2.63;;;;;;;18.00;74.52;92468.75;2056564;69;20243;-75
2022/09/08 07:17:05;;;;;;;2.90;2.22;;;;;;;17.79;75.64;92467.44;2057228;69;20154;-76
2022/09/08 07:19:49;;;;;;;3.78;1.90;;;;;;;17.66;75.49;92486.22;2053739;69;20616;-75
2022/09/08 07:22:51;;;;;;;3.40;2.38;;;;;;;17.52;78.17;92474.41;2057024;69;21787;-75
2022/09/08 07:25:43;;;;;;;6.25;2.30;;;;;;;17.85;75.60;92484.69;2059063;69;20629;-75
2022/09/08 07:28:12;;;;;;;5.20;1.90;;;;;;;17.92;75.11;92494.91;2055952;69;20195;-75
2022/09/08 07:30:39;;;;;;;6.32;1.83;;;;;;;17.95;74.23;92502.09;2053010;69;20216;-74
2022/09/08 07:33:17;;;;;;;4.78;1.90;;;;;;;17.95;75.77;92507.06;2057501;69;20145;-75
2022/09/08 07:36:15;;;;;;;5.32;1.60;;;;;;;17.86;73.79;92508.19;2052221;69;20632;-75
2022/09/08 07:38:52;;;;;;;2.38;1.30;;;;;;;17.84;72.68;92522.38;2056074;69;20158;-75
2022/09/08 07:41:28;;;;;;;3.33;1.10;;;;;;;17.70;73.00;92517.69;2053745;69;20197;-75
2022/09/08 07:43:59;;;;;;;1.88;1.00;;;;;;;17.75;73.32;92529.94;2057267;69;20174;-75
2022/09/08 07:46:49;;;;;;;1.13;0.90;;;;;;;17.81;72.44;92521.59;2056998;69;20245;-74
2022/09/08 07:49:18;;;;;;;1.55;0.95;;;;;;;17.74;73.58;92529.22;2056094;69;20193;-74
2022/09/08 07:52:06;;;;;;;2.63;0.88;;;;;;;17.73;74.35;92530.63;2058199;69;20173;-74
2022/09/08 07:54:56;;;;;;;2.10;0.93;;;;;;;17.84;73.80;92540.19;2057867;69;20158;-74
2022/09/08 07:57:45;;;;;;;2.47;0.98;;;;;;;17.88;72.58;92543.19;2058823;69;20220;-75
2022/09/08 08:00:30;;;;;;;2.55;1.00;;;;;;;17.81;74.27;92546.47;2057361;69;20162;-75
2022/09/08 08:03:20;;;;;;;1.33;0.80;;;;;;;17.57;74.42;92552.84;2056076;69;20160;-74
2022/09/08 08:05:58;;;;;;;3.25;0.85;;;;;;;17.78;73.12;92552.13;2058956;69;20157;-75
2022/09/08 08:08:56;;;;;;;3.63;0.82;;;;;;;17.76;72.42;92559.88;2057073;69;20180;-74
2022/09/08 08:11:48;;;;;;;2.05;0.70;;;;;;;17.70;72.47;92571.03;2056286;69;20577;-73
2022/09/08 08:14:31;;;;;;;4.38;0.90;;;;;;;17.59;73.30;92572.09;2050023;69;20150;-73
2022/09/08 08:17:15;;;;;;;2.55;0.68;;;;;;;17.59;73.03;92566.38;2057395;69;20142;-75
2022/09/08 08:20:06;;;;;;;1.27;0.80;;;;;;;17.57;74.50;92563.50;2058094;69;20501;-74
2022/09/08 08:22:41;;;;;;;1.17;0.65;;;;;;;17.53;75.15;92570.50;2055981;69;20145;-74
2022/09/08 08:25:29;;;;;;;3.55;0.73;;;;;;;17.59;74.33;92563.53;2056098;69;20478;-74
2022/09/08 08:28:04;;;;;;;2.35;0.85;;;;;;;17.64;73.79;92573.66;2056354;69;20203;-74
2022/09/08 08:30:34;;;;;;;0.98;0.73;;;;;;;17.67;73.83;92572.34;2059967;69;20660;-73
2022/09/08 08:33:13;;;;;;;4.82;0.60;;;;;;;17.60;73.89;92587.78;2058444;69;20252;-73
2022/09/08 08:35:57;;;;;;;2.65;0.70;;;;;;;17.43;75.36;92595.06;2057229;69;20545;-74
2022/09/08 08:38:30;;;;;;;1.70;0.60;;;;;;;17.59;73.17;92609.09;2057684;69;20146;-74
2022/09/08 08:40:58;;;;;;;0.70;0.57;;;;;;;17.59;73.48;92604.13;2056578;69;20164;-74
2022/09/08 08:43:52;;;;;;;0.80;0.45;;;;;;;17.54;73.92;92605.38;2055930;69;20240;-74
2022/09/08 08:46:48;;;;;;;2.38;0.65;;;;;;;17.62;73.78;92610.63;2051265;70;20499;-74
2022/09/08 08:49:21;;;;;;;1.50;0.57;;;;;;;17.61;73.23;92609.16;2053315;69;20200;-73
2022/09/08 08:52:05;;;;;;;1.90;0.50;;;;;;;17.74;72.17;92616.75;2055562;69;20189;-73
2022/09/08 08:54:46;;;;;;;0.70;0.60;;;;;;;17.69;74.54;92612.28;2057127;69;20580;-73
2022/09/08 08:57:30;;;;;;;1.13;0.70;;;;;;;17.70;73.40;92623.00;2054057;69;20545;-73
2022/09/08 09:00:18;;;;;;;3.17;0.50;;;;;;;17.83;73.17;92612.06;2054282;69;20174;-74
2022/09/08 09:03:08;;;;;;;1.00;0.60;;;;;;;17.72;72.00;92614.53;2050688;70;20579;-74
2022/09/08 09:05:43;;;;;;;0.77;0.50;;;;;;;17.72;73.36;92613.78;2051883;69;20149;-74
2022/09/08 09:08:36;;;;;;;2.33;0.60;;;;;;;17.77;72.52;92613.28;2053361;69;20652;-75
2022/09/08 09:11:40;;;;;;;0.65;0.50;;;;;;;17.86;73.75;92619.25;2054521;69;20209;-76
2022/09/08 09:14:35;;;;;;;0.60;0.40;;;;;;;17.94;73.20;92619.53;2041165;70;20151;-73
2022/09/08 09:17:27;;;;;;;1.33;0.80;;;;;;;17.93;74.18;92609.53;2044835;70;20174;-74
2022/09/08 09:20:20;;;;;;;2.05;0.70;;;;;;;18.04;74.01;92608.44;2043620;70;20286;-74
2022/09/08 09:22:47;;;;;;;1.70;0.80;;;;;;;17.95;72.82;92610.31;2042924;70;20147;-74
2022/09/08 09:25:34;;;;;;;1.15;0.77;;;;;;;18.15;70.83;92613.09;2043323;70;20158;-75
2022/09/08 09:28:25;;;;;;;1.38;0.70;;;;;;;18.21;72.42;92610.41;2042809;70;20194;-74
2022/09/08 09:31:21;;;;;;;2.67;0.90;;;;;;;18.20;74.20;92613.94;2042088;70;20162;-74
2022/09/08 09:34:12;;;;;;;2.88;0.80;;;;;;;18.22;73.51;92614.00;2045512;70;20135;-77
2022/09/08 09:36:40;;;;;;;1.65;0.90;;;;;;;18.28;70.41;92617.78;2042543;70;20205;-75
2022/09/08 09:39:15;;;;;;;4.50;1.15;;;;;;;18.10;71.51;92616.44;2048157;70;20630;-77
2022/09/08 09:42:27;;;;;;;4.07;1.52;;;;;;;18.07;72.31;92609.97;2045159;70;20171;-77
2022/09/08 09:45:30;;;;;;;2.85;1.38;;;;;;;18.15;71.08;92612.38;2043458;70;20161;-78
2022/09/08 09:48:33;;;;;;;4.80;1.52;;;;;;;18.12;69.51;92614.41;2048203;69;20162;-75
2022/09/08 09:51:27;;;;;;;3.63;1.25;;;;;;;17.88;71.45;92596.56;2055506;69;20161;-77
2022/09/08 09:54:14;;;;;;;1.77;1.00;;;;;;;17.65;72.31;92590.09;2051024;70;20141;-74
2022/09/08 09:57:07;;;;;;;4.57;1.60;;;;;;;17.74;70.61;92580.47;2054130;70;20146;-74
2022/09/08 09:59:38;;;;;;;4.85;1.80;;;;;;;17.87;71.25;92584.44;2056180;69;20267;-77
2022/09/08 10:02:42;;;;;;;2.47;1.50;;;;;;;17.78;70.71;92579.88;2054842;69;20162;-76
2022/09/08 10:05:22;;;;;;;;;;;;;;;18.22;68.28;92576.94;2054618;69;20181;-76
2022/09/08 10:08:23;;;;;;;3.33;0.90;;;;;;;18.54;67.83;92571.50;2057003;69;20473;-76
2022/09/08 10:11:07;;;;;;;1.63;1.00;;;;;;;18.46;67.81;92557.75;2057397;69;20228;-76
2022/09/08 10:13:54;;;;;;;1.77;0.90;;;;;;;18.71;67.47;92547.06;2056315;69;20297;-78
2022/09/08 10:16:55;;;;;;;1.67;1.00;;;;;;;18.97;68.43;92549.94;2055855;69;20186;-76
2022/09/08 10:19:42;;;;;;;2.45;0.95;;;;;;;19.16;67.55;92540.47;2054228;69;20271;-76
2022/09/08 10:22:31;;;;;;;2.03;0.90;;;;;;;19.11;67.03;92535.31;2050575;70;20198;-74
2022/09/08 10:25:12;;;;;;;2.08;0.90;;;;;;;19.25;69.27;92541.41;2052497;69;20185;-77
2022/09/08 10:28:14;;;;;;;1.70;0.70;;;;;;;19.42;68.79;92543.25;2056515;69;20380;-74
2022/09/08 10:31:04;;;;;;;1.02;0.85;;;;;;;19.54;69.80;92543.56;2054873;69;20157;-75
2022/09/08 10:33:48;;;;;;;1.30;1.00;;;;;;;19.77;68.07;92549.88;2056432;69;20286;-75
2022/09/08 10:36:15;;;;;;;1.25;1.08;;;;;;;19.77;64.25;92547.72;2057518;69;20144;-76
2022/09/08 10:38:51;;;;;;;2.55;1.00;;;;;;;19.98;65.30;92551.09;2056904;69;20288;-76
2022/09/08 10:41:19;;;;;;;3.35;1.05;;;;;;;20.02;64.48;92551.16;2057727;69;20153;-78
2022/09/08 10:44:34;;;;;;;1.92;0.90;;;;;;;20.03;65.42;92550.50;2056763;69;20626;-75
2022/09/08 10:47:36;;;;;;;35.42;20.45;;;;;;;19.77;63.57;92539.16;2054315;70;20149;-79
2022/09/08 10:50:18;;;;;;;1.92;1.20;;;;;;;19.85;63.61;92532.94;2055142;69;20232;-78
2022/09/08 10:53:33;;;;;;;2.13;1.10;;;;;;;19.91;64.43;92524.50;2056864;69;20238;-77
2022/09/08 10:56:07;;;;;;;2.53;0.90;;;;;;;19.79;64.38;92529.91;2055296;69;20212;-77
2022/09/08 10:58:45;;;;;;;3.28;0.90;;;;;;;19.79;66.66;92532.75;2057061;69;20173;-78
2022/09/08 11:01:31;;;;;;;0.82;0.75;;;;;;;19.81;67.85;92544.25;2055995;69;20169;-79
2022/09/08 11:04:35;;;;;;;2.85;1.20;;;;;;;19.90;68.18;92542.31;2050954;70;20173;-77
2022/09/08 11:07:18;;;;;;;5.13;1.77;;;;;;;20.03;67.69;92550.50;2054195;70;20218;-74
2022/09/08 11:10:22;;;;;;;1.30;1.00;;;;;;;20.10;66.92;92528.50;2053769;69;20576;-77
2022/09/08 11:12:57;;;;;;;;;;;;;;;20.23;66.12;92550.22;2055786;69;20162;-73
2022/09/08 11:15:54;;;;;;;2.08;0.95;;;;;;;20.46;63.30;92540.00;2058694;69;20454;-77
2022/09/08 11:18:28;;;;;;;3.03;0.90;;;;;;;20.73;64.92;92529.16;2058082;69;20165;-72
2022/09/08 11:21:03;;;;;;;1.77;0.90;;;;;;;21.03;63.39;92535.50;2059375;69;20183;-75
2022/09/08 11:23:50;;;;;;;4.93;0.98;;;;;;;21.13;63.61;92531.38;2060232;70;20297;-74
2022/09/08 11:26:25;;;;;;;2.50;1.05;;;;;;;20.97;62.62;92529.63;2059917;70;20153;-73
2022/09/08 11:29:12;;;;;;;0.75;0.73;;;;;;;21.03;63.18;92524.03;2056593;69;20161;-76
2022/09/08 11:31:56;;;;;;;3.35;0.93;;;;;;;21.12;63.19;92518.47;2056413;69;20138;-74
2022/09/08 11:34:30;;;;;;;1.83;0.70;;;;;;;21.21;65.04;92522.91;2054923;70;20161;-79
2022/09/08 11:37:05;;;;;;;1.25;0.80;;;;;;;21.68;62.08;92515.91;2055424;69;20138;-76
2022/09/08 11:40:06;;;;;;;1.65;0.60;;;;;;;23.22;58.83;92522.38;2054827;69;20153;-78
2022/09/08 11:42:38;;;;;;;1.50;0.57;;;;;;;23.12;55.53;92530.88;2051311;70;20141;-80
2022/09/08 11:45:25;;;;;;;0.80;0.70;;;;;;;25.79;49.95;92524.00;2053511;70;20189;-79
2022/09/08 11:48:27;;;;;;;1.80;0.50;;;;;;;24.75;49.99;92529.41;2054354;69;20138;-74
2022/09/08 11:51:00;;;;;;;0.88;0.55;;;;;;;24.13;51.38;92530.41;2054761;69;20189;-80
2022/09/08 11:53:51;;;;;;;1.80;0.57;;;;;;;24.60;49.15;92530.75;2057557;69;20642;-80
2022/09/08 11:56:53;;;;;;;2.38;0.70;;;;;;;24.70;48.23;92527.94;2057443;69;20153;-79
2022/09/08 12:00:08;;;;;;;3.10;0.70;;;;;;;29.80;42.40;92539.75;2054742;69;20138;-79
2022/09/08 12:03:17;;;;;;;0.98;0.90;;;;;;;26.67;42.80;92526.91;2051273;69;20157;-79
2022/09/08 12:05:48;;;;;;;;;;;;;;;29.68;40.25;92525.41;2053981;70;20401;-75
2022/09/08 12:08:47;;;;;;;0.77;0.60;;;;;;;29.52;39.93;92526.31;2051064;69;20123;-75
2022/09/08 12:11:25;;;;;;;1.42;0.82;;;;;;;28.33;40.85;92518.13;2053114;69;20261;-74
2022/09/08 12:14:09;;;;;;;1.40;1.30;;;;;;;29.21;39.69;92525.97;2051709;69;20162;-79
2022/09/08 12:17:04;;;;;;;0.68;0.60;;;;;;;29.59;35.42;92516.09;2056768;69;20571;-76
2022/09/08 12:19:29;;;;;;;1.50;0.60;;;;;;;30.76;34.35;92509.22;2053902;69;20146;-77
2022/09/08 12:22:13;;;;;;;0.73;0.50;;;;;;;33.39;32.24;92512.00;2054599;69;20156;-77
2022/09/08 12:25:10;;;;;;;1.13;0.32;;;;;;;31.81;32.60;92515.16;2056274;69;20242;-76